createdAt,value
2018-12-16T00:00:09.046Z,4.17
2018-12-16T00:02:36.756Z,3.10
2018-12-16T00:05:04.238Z,3.80
2018-12-16T00:07:31.696Z,4.83
2018-12-16T00:09:59.519Z,3.90
2018-12-16T00:12:26.996Z,4.53
2018-12-16T00:14:54.644Z,4.10
2018-12-16T00:17:22.093Z,4.00
2018-12-16T00:19:49.628Z,4.07
2018-12-16T00:22:17.069Z,3.07
2018-12-16T00:24:44.613Z,4.57
2018-12-16T00:27:12.306Z,4.30
2018-12-16T00:29:39.890Z,4.27
2018-12-16T00:32:07.357Z,4.17
2018-12-16T00:34:34.773Z,4.13
2018-12-16T00:37:02.342Z,4.30
2018-12-16T00:39:30.002Z,3.80
2018-12-16T00:41:57.461Z,4.07
2018-12-16T00:44:24.924Z,3.40
2018-12-16T00:46:52.437Z,3.77
2018-12-16T00:49:19.872Z,4.67
2018-12-16T00:51:47.356Z,4.93
2018-12-16T00:54:14.935Z,3.33
2018-12-16T00:56:42.394Z,3.40
2018-12-16T00:59:09.839Z,3.43
2018-12-16T01:01:37.495Z,3.43
2018-12-16T01:04:05.134Z,3.97
2018-12-16T01:06:32.602Z,3.50
2018-12-16T01:09:00.034Z,2.40
2018-12-16T01:11:27.594Z,3.87
2018-12-16T01:13:55.169Z,4.27
2018-12-16T01:16:22.837Z,3.93
2018-12-16T01:18:50.295Z,4.30
2018-12-16T01:21:18.558Z,4.57
2018-12-16T01:23:46.026Z,6.13
2018-12-16T01:26:13.524Z,4.77
2018-12-16T01:28:41.115Z,3.77
2018-12-16T01:31:08.570Z,3.73
2018-12-16T01:33:36.031Z,5.70
2018-12-16T01:36:03.598Z,7.47
2018-12-16T01:38:31.658Z,4.07
2018-12-16T01:40:59.087Z,3.93
2018-12-16T01:43:26.509Z,3.67
2018-12-16T01:45:53.930Z,5.00
2018-12-16T01:48:21.399Z,3.03
2018-12-16T01:50:49.023Z,4.57
2018-12-16T01:53:16.687Z,3.93
2018-12-16T01:55:44.142Z,3.63
2018-12-16T01:58:11.808Z,4.27
2018-12-16T02:00:39.466Z,3.73
2018-12-16T02:03:07.115Z,3.67
2018-12-16T02:05:34.784Z,3.80
2018-12-16T02:08:02.273Z,4.67
2018-12-16T02:10:29.890Z,3.97
2018-12-16T02:12:57.548Z,3.97
2018-12-16T02:15:25.202Z,3.43
2018-12-16T02:17:52.857Z,3.77
2018-12-16T02:20:20.746Z,4.33
2018-12-16T02:22:48.218Z,4.40
2018-12-16T02:25:15.838Z,4.60
2018-12-16T02:27:43.353Z,4.20
2018-12-16T02:30:12.730Z,4.03
2018-12-16T02:32:40.456Z,5.03
2018-12-16T02:35:08.115Z,4.10
2018-12-16T02:37:35.644Z,4.80
2018-12-16T02:40:03.434Z,5.37
2018-12-16T02:42:31.085Z,4.37
2018-12-16T02:44:58.754Z,3.83
2018-12-16T02:47:26.419Z,3.80
2018-12-16T02:49:53.950Z,4.43
2018-12-16T02:52:21.564Z,4.43
2018-12-16T02:54:48.997Z,3.63
2018-12-16T02:57:16.634Z,4.53
2018-12-16T02:59:44.097Z,3.57
2018-12-16T03:02:11.742Z,3.80
2018-12-16T03:04:39.399Z,3.30
2018-12-16T03:07:06.970Z,3.43
2018-12-16T03:09:34.511Z,3.70
2018-12-16T03:12:02.189Z,4.53
2018-12-16T03:14:29.831Z,3.13
2018-12-16T03:16:57.486Z,3.77
2018-12-16T03:19:25.151Z,3.00
2018-12-16T03:21:52.807Z,3.33
2018-12-16T03:24:20.463Z,3.97
2018-12-16T03:26:47.915Z,4.43
2018-12-16T03:29:15.370Z,4.07
2018-12-16T03:31:43.030Z,2.80
2018-12-16T03:34:10.695Z,4.40
2018-12-16T03:36:38.139Z,4.10
2018-12-16T03:39:06.827Z,3.50
2018-12-16T03:41:34.277Z,4.53
2018-12-16T03:44:01.949Z,3.30
2018-12-16T03:52:58.410Z,3.07
2018-12-16T03:55:25.882Z,2.63
2018-12-16T03:57:53.361Z,3.70
2018-12-16T04:00:20.941Z,3.73
2018-12-16T04:02:48.460Z,3.27
2018-12-16T04:05:16.001Z,2.97
2018-12-16T04:07:43.449Z,2.20
2018-12-16T04:10:10.921Z,3.60
2018-12-16T04:12:38.430Z,3.93
2018-12-16T04:15:06.058Z,3.33
2018-12-16T04:17:33.503Z,3.73
2018-12-16T04:20:01.045Z,3.43
2018-12-16T04:22:28.786Z,3.43
2018-12-16T04:24:56.450Z,3.77
2018-12-16T04:27:24.112Z,4.10
2018-12-16T04:29:51.765Z,3.40
2018-12-16T04:32:19.425Z,3.30
2018-12-16T04:34:47.081Z,3.07
2018-12-16T04:37:14.732Z,3.40
2018-12-16T04:39:42.194Z,4.03
2018-12-16T04:42:09.853Z,4.53
2018-12-16T04:44:37.309Z,3.70
2018-12-16T04:47:04.752Z,4.07
2018-12-16T04:49:32.413Z,2.97
2018-12-16T04:52:00.073Z,4.30
2018-12-16T04:54:27.737Z,3.27
2018-12-16T04:56:55.400Z,4.40
2018-12-16T04:59:22.960Z,4.10
2018-12-16T05:01:50.420Z,4.67
2018-12-16T05:04:18.075Z,3.87
2018-12-16T05:06:45.558Z,3.97
2018-12-16T05:09:12.996Z,4.47
2018-12-16T05:11:40.445Z,3.43
2018-12-16T05:14:07.896Z,4.60
2018-12-16T05:16:35.434Z,3.87
2018-12-16T05:19:03.096Z,4.07
2018-12-16T05:21:30.546Z,3.60
2018-12-16T05:23:58.211Z,3.57
2018-12-16T05:26:25.689Z,4.23
2018-12-16T05:28:53.321Z,3.47
2018-12-16T05:31:20.885Z,3.67
2018-12-16T05:33:48.434Z,4.30
2018-12-16T05:36:16.090Z,3.83
2018-12-16T05:38:43.557Z,3.57
2018-12-16T05:41:11.013Z,3.37
2018-12-16T05:43:38.525Z,3.00
2018-12-16T05:46:05.973Z,4.10
2018-12-16T05:48:33.471Z,3.53
2018-12-16T05:51:01.022Z,4.03
2018-12-16T05:53:28.685Z,3.47
2018-12-16T05:55:56.400Z,3.83
2018-12-16T05:58:23.908Z,3.67
2018-12-16T06:00:51.366Z,3.00
2018-12-16T06:03:18.910Z,4.07
2018-12-16T06:05:46.577Z,3.77
2018-12-16T06:08:14.222Z,4.13
2018-12-16T06:10:41.889Z,4.53
2018-12-16T06:13:09.543Z,4.33
2018-12-16T06:15:37.201Z,4.43
2018-12-16T06:18:04.653Z,4.40
2018-12-16T06:20:32.321Z,3.73
2018-12-16T06:22:59.766Z,3.60
2018-12-16T06:25:27.252Z,3.67
2018-12-16T06:27:54.879Z,3.80
2018-12-16T06:30:23.008Z,5.50
2018-12-16T06:32:50.518Z,4.27
2018-12-16T06:35:18.058Z,4.07
2018-12-16T06:37:45.495Z,4.83
2018-12-16T06:40:12.961Z,5.27
2018-12-16T06:42:40.621Z,5.43
2018-12-16T06:45:08.277Z,5.17
2018-12-16T06:47:35.938Z,4.50
2018-12-16T06:50:04.860Z,3.27
2018-12-16T06:52:32.394Z,3.57
2018-12-16T06:54:59.888Z,4.03
2018-12-16T06:57:27.325Z,3.73
2018-12-16T06:59:55.053Z,3.60
2018-12-16T07:02:22.706Z,4.00
2018-12-16T07:04:50.273Z,3.67
2018-12-16T07:07:17.822Z,3.57
2018-12-16T07:09:45.317Z,3.90
2018-12-16T07:12:12.757Z,3.33
2018-12-16T07:14:40.274Z,2.97
2018-12-16T07:17:07.889Z,4.63
2018-12-16T07:19:35.617Z,3.40
2018-12-16T07:22:03.174Z,3.40
2018-12-16T07:24:30.727Z,3.17
2018-12-16T07:26:58.187Z,3.03
2018-12-16T07:29:26.021Z,4.00
2018-12-16T07:31:53.593Z,3.67
2018-12-16T07:34:21.049Z,4.73
2018-12-16T07:36:48.701Z,4.00
2018-12-16T07:39:16.481Z,4.03
2018-12-16T07:41:43.934Z,3.53
2018-12-16T07:44:11.637Z,2.73
2018-12-16T07:46:39.141Z,3.97
2018-12-16T07:49:06.622Z,3.07
2018-12-16T07:51:34.141Z,3.93
2018-12-16T07:54:01.758Z,3.33
2018-12-16T07:56:29.399Z,3.87
2018-12-16T07:58:57.005Z,3.90
2018-12-16T08:01:25.502Z,4.97
2018-12-16T08:03:53.154Z,3.50
2018-12-16T08:06:20.728Z,4.27
2018-12-16T08:08:48.495Z,3.93
2018-12-16T08:11:16.125Z,3.60
2018-12-16T08:13:43.577Z,4.07
2018-12-16T08:16:11.281Z,3.57
2018-12-16T08:18:38.898Z,3.37
2018-12-16T08:21:06.559Z,4.13
2018-12-16T08:23:35.484Z,3.63
2018-12-16T08:26:03.301Z,3.87
2018-12-16T08:28:30.977Z,3.90
2018-12-16T08:30:58.610Z,3.43
2018-12-16T08:33:26.086Z,3.83
2018-12-16T08:35:53.748Z,2.97
2018-12-16T08:38:21.405Z,3.07
2018-12-16T08:40:49.055Z,4.27
2018-12-16T08:43:16.713Z,3.73
2018-12-16T08:45:44.376Z,3.57
2018-12-16T08:48:11.820Z,3.43
2018-12-16T08:50:39.289Z,3.77
2018-12-16T08:53:06.733Z,3.93
2018-12-16T08:55:34.174Z,3.90
2018-12-16T08:58:01.845Z,4.50
2018-12-16T09:00:29.297Z,4.30
2018-12-16T09:02:56.864Z,3.67
2018-12-16T09:05:24.325Z,3.97
2018-12-16T09:07:51.870Z,5.57
2018-12-16T09:10:19.329Z,4.33
2018-12-16T09:12:46.791Z,4.73
2018-12-16T09:15:14.261Z,4.57
2018-12-16T09:17:41.996Z,3.67
2018-12-16T09:20:09.542Z,4.70
2018-12-16T09:22:37.203Z,4.60
2018-12-16T09:25:05.105Z,4.10
2018-12-16T09:27:32.629Z,4.77
2018-12-16T09:30:00.075Z,3.73
2018-12-16T09:32:27.564Z,4.77
2018-12-16T09:34:55.173Z,3.90
2018-12-16T09:37:22.627Z,3.77
2018-12-16T09:39:50.278Z,3.50
2018-12-16T09:42:17.857Z,2.97
2018-12-16T09:44:45.567Z,3.73
2018-12-16T09:47:13.013Z,3.97
2018-12-16T09:49:40.442Z,3.20
2018-12-16T09:52:07.989Z,3.47
2018-12-16T09:54:35.431Z,3.67
2018-12-16T09:57:02.885Z,3.50
2018-12-16T09:59:30.321Z,3.03
2018-12-16T10:01:57.766Z,3.70
2018-12-16T10:04:25.210Z,3.80
2018-12-16T10:06:52.819Z,3.67
2018-12-16T10:09:20.465Z,3.47
2018-12-16T10:11:48.313Z,4.23
2018-12-16T10:14:15.981Z,3.83
2018-12-16T10:16:43.641Z,3.47
2018-12-16T10:19:11.082Z,3.37
2018-12-16T10:21:38.595Z,3.87
2018-12-16T10:24:06.211Z,4.47
2018-12-16T10:26:33.731Z,4.50
2018-12-16T10:29:01.177Z,3.93
2018-12-16T10:31:28.669Z,4.17
2018-12-16T10:33:56.231Z,3.30
2018-12-16T10:36:23.889Z,3.37
2018-12-16T10:38:51.546Z,3.90
2018-12-16T10:41:19.206Z,3.37
2018-12-16T10:43:46.646Z,3.07
2018-12-16T10:46:14.129Z,3.47
2018-12-16T10:48:41.769Z,3.33
2018-12-16T10:51:09.425Z,3.50
2018-12-16T10:53:37.091Z,3.60
2018-12-16T10:56:04.745Z,3.53
2018-12-16T10:58:32.197Z,4.47
2018-12-16T11:01:05.409Z,5.30
2018-12-16T11:03:33.054Z,4.37
2018-12-16T11:06:00.490Z,5.73
2018-12-16T11:08:27.949Z,5.03
2018-12-16T11:10:55.426Z,4.17
2018-12-16T11:13:22.981Z,5.83
2018-12-16T11:15:50.529Z,5.20
2018-12-16T11:18:17.977Z,5.40
2018-12-16T11:20:45.633Z,4.93
2018-12-16T11:23:13.296Z,4.43
2018-12-16T11:25:41.221Z,4.50
2018-12-16T11:28:08.725Z,5.50
2018-12-16T11:30:36.265Z,5.60
2018-12-16T11:33:03.947Z,6.60
2018-12-16T11:35:31.496Z,6.37
2018-12-16T11:37:59.736Z,6.00
2018-12-16T11:40:27.317Z,5.90
2018-12-16T11:42:54.881Z,6.47
2018-12-16T11:45:22.322Z,5.90
2018-12-16T11:47:50.021Z,5.80
2018-12-16T11:50:17.740Z,4.73
2018-12-16T11:52:45.394Z,5.90
2018-12-16T11:55:13.185Z,5.47
2018-12-16T11:57:40.907Z,6.03
2018-12-16T12:00:08.786Z,6.17
2018-12-16T12:02:36.464Z,6.50
2018-12-16T12:05:05.152Z,5.77
2018-12-16T12:07:32.786Z,6.33
2018-12-16T12:10:00.446Z,6.43
2018-12-16T12:12:28.129Z,4.83
2018-12-16T12:14:55.767Z,5.40
2018-12-16T12:17:23.333Z,5.80
2018-12-16T12:19:50.873Z,5.23
2018-12-16T12:22:18.349Z,6.53
2018-12-16T12:24:45.828Z,5.80
2018-12-16T12:27:13.265Z,5.73
2018-12-16T12:29:40.897Z,5.10
2018-12-16T12:32:08.374Z,4.83
2018-12-16T12:34:36.042Z,4.53
2018-12-16T12:37:03.674Z,3.60
2018-12-16T12:39:31.445Z,4.57
2018-12-16T12:41:58.986Z,5.07
2018-12-16T12:44:26.454Z,5.33
2018-12-16T12:46:53.897Z,4.37
2018-12-16T12:49:21.323Z,4.27
2018-12-16T12:51:48.991Z,4.63
2018-12-16T12:54:16.509Z,5.30
2018-12-16T12:56:43.940Z,4.17
2018-12-16T12:59:11.569Z,4.37
2018-12-16T13:01:39.453Z,3.90
2018-12-16T13:04:07.094Z,5.43
2018-12-16T13:06:34.686Z,5.60
2018-12-16T13:09:02.169Z,4.07
2018-12-16T13:11:29.662Z,4.30
2018-12-16T13:13:57.213Z,4.67
2018-12-16T13:16:24.855Z,4.57
2018-12-16T13:18:52.429Z,5.57
2018-12-16T13:21:20.086Z,5.67
2018-12-16T13:23:47.748Z,4.77
2018-12-16T13:26:15.273Z,6.40
2018-12-16T13:28:42.857Z,5.70
2018-12-16T13:31:10.513Z,4.63
2018-12-16T13:33:38.182Z,4.80
2018-12-16T13:36:08.824Z,5.67
2018-12-16T13:38:36.256Z,5.27
2018-12-16T13:41:03.781Z,4.77
2018-12-16T13:43:31.474Z,4.87
2018-12-16T13:45:59.139Z,5.83
2018-12-16T13:48:26.793Z,5.10
2018-12-16T13:50:54.259Z,6.00
2018-12-16T13:53:21.929Z,5.37
2018-12-16T13:55:49.401Z,4.70
2018-12-16T13:58:16.850Z,4.77
2018-12-16T14:00:44.673Z,7.10
2018-12-16T14:03:12.132Z,5.60
2018-12-16T14:05:46.489Z,6.23
2018-12-16T14:08:09.334Z,6.97
2018-12-16T14:10:36.943Z,6.27
2018-12-16T14:13:04.606Z,5.37
2018-12-16T14:15:32.071Z,5.53
2018-12-16T14:17:59.554Z,6.17
2018-12-16T14:20:27.289Z,5.13
2018-12-16T14:22:54.750Z,5.53
2018-12-16T14:25:22.332Z,5.13
2018-12-16T14:27:49.946Z,4.80
2018-12-16T14:30:17.606Z,5.37
2018-12-16T14:32:45.055Z,5.93
2018-12-16T14:35:13.059Z,9.07
2018-12-16T14:37:40.586Z,18.80
2018-12-16T14:40:08.858Z,18.67
2018-12-16T14:42:36.409Z,14.40
2018-12-16T14:45:05.617Z,8.90
2018-12-16T14:47:33.266Z,7.70
2018-12-16T14:50:00.733Z,5.63
2018-12-16T14:52:28.194Z,5.03
2018-12-16T14:54:55.824Z,4.60
2018-12-16T14:57:23.278Z,4.27
2018-12-16T14:59:50.710Z,4.10
2018-12-16T15:02:18.392Z,4.70
2018-12-16T15:04:46.045Z,3.23
2018-12-16T15:07:13.502Z,4.27
2018-12-16T15:09:40.948Z,4.13
2018-12-16T15:12:08.618Z,3.70
2018-12-16T15:14:36.373Z,4.20
2018-12-16T15:17:03.942Z,4.23
2018-12-16T15:19:31.403Z,4.77
2018-12-16T15:21:58.845Z,2.87
2018-12-16T15:24:26.358Z,3.43
2018-12-16T15:26:53.945Z,2.43
2018-12-16T15:29:21.611Z,2.93
2018-12-16T15:31:49.077Z,2.60
2018-12-16T15:34:16.721Z,2.53
2018-12-16T15:36:44.651Z,2.47
2018-12-16T15:39:12.233Z,3.13
2018-12-16T15:41:39.897Z,3.20
2018-12-16T15:44:07.359Z,2.37
2018-12-16T15:46:34.907Z,2.03
2018-12-16T15:49:02.481Z,2.33
2018-12-16T15:51:30.141Z,2.70
2018-12-16T15:53:57.613Z,3.00
2018-12-16T15:56:25.053Z,2.50
2018-12-16T15:58:52.489Z,1.90
2018-12-16T16:01:19.944Z,2.07
2018-12-16T16:03:47.397Z,2.10
2018-12-16T16:06:15.062Z,2.47
2018-12-16T16:08:42.713Z,1.40
2018-12-16T16:11:10.179Z,2.00
2018-12-16T16:13:37.632Z,2.47
2018-12-16T16:16:05.282Z,2.73
2018-12-16T16:18:32.938Z,3.03
2018-12-16T16:21:00.601Z,3.17
2018-12-16T16:23:28.255Z,2.60
2018-12-16T16:25:55.705Z,2.90
2018-12-16T16:28:23.375Z,2.17
2018-12-16T16:30:51.014Z,2.10
2018-12-16T16:33:18.821Z,2.30
2018-12-16T16:35:46.266Z,2.80
2018-12-16T16:38:13.847Z,2.80
2018-12-16T16:40:41.526Z,2.97
2018-12-16T16:43:09.026Z,1.80
2018-12-16T16:45:36.777Z,2.07
2018-12-16T16:48:04.446Z,2.07
2018-12-16T16:50:31.886Z,2.23
2018-12-16T16:52:59.326Z,2.03
2018-12-16T16:55:26.778Z,1.83
2018-12-16T16:57:54.457Z,6.70
2018-12-16T17:00:22.116Z,4.63
2018-12-16T17:02:49.561Z,5.60
2018-12-16T17:05:17.230Z,4.37
2018-12-16T17:07:44.710Z,3.40
2018-12-16T17:10:12.250Z,2.97
2018-12-16T17:12:39.733Z,3.33
2018-12-16T17:15:07.458Z,3.13
2018-12-16T17:17:34.942Z,2.70
2018-12-16T17:20:02.422Z,3.63
2018-12-16T17:22:29.920Z,3.07
2018-12-16T17:24:57.477Z,3.27
2018-12-16T17:27:25.125Z,3.93
2018-12-16T17:29:52.598Z,3.43
2018-12-16T17:32:20.248Z,3.57
2018-12-16T17:34:47.828Z,3.27
2018-12-16T17:37:15.282Z,3.63
2018-12-16T17:39:42.736Z,3.43
2018-12-16T17:42:10.201Z,3.57
2018-12-16T17:44:37.629Z,3.63
2018-12-16T17:47:05.077Z,4.30
2018-12-16T17:49:32.533Z,3.27
2018-12-16T17:52:00.091Z,3.40
2018-12-16T17:54:27.631Z,3.47
2018-12-16T17:56:55.245Z,4.20
2018-12-16T17:59:22.845Z,5.07
2018-12-16T18:01:50.528Z,5.13
2018-12-16T18:04:17.975Z,6.17
2018-12-16T18:06:45.627Z,5.77
2018-12-16T18:09:13.106Z,6.00
2018-12-16T18:11:40.728Z,5.47
2018-12-16T18:14:08.189Z,5.50
2018-12-16T18:16:35.625Z,6.63
2018-12-16T18:19:03.300Z,4.27
2018-12-16T18:21:30.750Z,4.83
2018-12-16T18:23:58.613Z,4.87
2018-12-16T18:26:26.286Z,4.70
2018-12-16T18:28:53.929Z,4.07
2018-12-16T18:31:21.382Z,4.20
2018-12-16T18:33:49.062Z,3.80
2018-12-16T18:36:16.525Z,2.27
2018-12-16T18:38:44.151Z,2.77
2018-12-16T18:41:11.619Z,2.73
2018-12-16T18:43:39.280Z,3.20
2018-12-16T18:46:06.938Z,2.20
2018-12-16T18:48:34.589Z,3.13
2018-12-16T18:51:02.047Z,2.00
2018-12-16T18:53:29.565Z,2.13
2018-12-16T18:55:57.897Z,2.10
2018-12-16T18:58:25.426Z,2.13
2018-12-16T19:00:52.877Z,2.20
2018-12-16T19:03:20.386Z,1.77
2018-12-16T19:05:47.904Z,2.10
2018-12-16T19:08:16.345Z,2.03
2018-12-16T19:10:43.982Z,2.47
2018-12-16T19:13:11.585Z,5.53
2018-12-16T19:15:39.041Z,5.77
2018-12-16T19:18:06.714Z,2.90
2018-12-16T19:20:34.356Z,2.80
2018-12-16T19:23:02.010Z,2.10
2018-12-16T19:25:29.580Z,2.40
2018-12-16T19:27:57.024Z,2.90
2018-12-16T19:30:24.476Z,2.87
2018-12-16T19:32:51.917Z,3.17
2018-12-16T19:35:19.487Z,3.40
2018-12-16T19:37:47.155Z,2.90
2018-12-16T19:40:14.609Z,3.03
2018-12-16T19:42:42.076Z,2.93
2018-12-16T19:45:09.710Z,3.50
2018-12-16T19:47:37.365Z,2.27
2018-12-16T19:50:06.529Z,2.97
2018-12-16T19:52:33.982Z,2.63
2018-12-16T19:55:01.663Z,2.33
2018-12-16T19:57:29.221Z,2.63
2018-12-16T19:59:57.525Z,2.90
2018-12-16T20:02:25.001Z,3.20
2018-12-16T20:05:10.212Z,3.87
2018-12-16T20:07:37.696Z,3.80
2018-12-16T20:10:05.957Z,3.53
2018-12-16T20:12:33.423Z,2.63
2018-12-16T20:15:01.087Z,3.07
2018-12-16T20:17:28.544Z,3.30
2018-12-16T20:19:56.181Z,2.77
2018-12-16T20:22:23.651Z,2.93
2018-12-16T20:24:51.297Z,2.97
2018-12-16T20:27:18.957Z,2.97
2018-12-16T20:29:46.613Z,2.43
2018-12-16T20:32:14.054Z,2.40
2018-12-16T20:34:41.731Z,2.87
2018-12-16T20:37:09.387Z,2.43
2018-12-16T20:39:36.861Z,2.87
2018-12-16T20:42:04.498Z,2.90
2018-12-16T20:44:32.153Z,2.00
2018-12-16T20:46:59.815Z,2.30
2018-12-16T20:49:27.282Z,2.70
2018-12-16T20:51:54.725Z,2.40
2018-12-16T20:54:22.385Z,1.77
2018-12-16T20:56:49.834Z,1.20
2018-12-16T20:59:17.341Z,1.70
2018-12-16T21:01:44.945Z,1.63
2018-12-16T21:04:12.482Z,1.47
2018-12-16T21:06:39.951Z,5.90
2018-12-16T21:09:07.837Z,4.43
2018-12-16T21:11:41.562Z,0.87
2018-12-16T21:17:19.213Z,1.50
2018-12-16T21:19:46.669Z,1.63
2018-12-16T21:22:14.139Z,1.23
2018-12-16T21:24:41.797Z,1.63
2018-12-16T21:27:10.547Z,2.00
2018-12-16T21:29:38.137Z,1.57
2018-12-16T21:32:07.343Z,2.23
2018-12-16T21:34:35.004Z,2.63
2018-12-16T21:37:02.545Z,1.80
2018-12-16T21:39:30.116Z,1.70
2018-12-16T21:41:57.558Z,1.77
2018-12-16T21:44:25.003Z,2.07
2018-12-16T21:46:52.558Z,2.07
2018-12-16T21:49:20.041Z,2.67
2018-12-16T21:51:47.677Z,3.27
2018-12-16T21:54:15.138Z,2.93
2018-12-16T21:56:42.804Z,2.80
2018-12-16T21:59:10.360Z,3.07
2018-12-16T22:01:37.793Z,3.30
2018-12-16T22:04:05.361Z,3.47
2018-12-16T22:06:33.017Z,2.80
2018-12-16T22:09:00.469Z,2.20
2018-12-16T22:11:27.921Z,3.13
2018-12-16T22:13:55.436Z,2.20
2018-12-16T22:16:23.041Z,2.17
2018-12-16T22:18:50.577Z,2.03
2018-12-16T22:21:18.153Z,2.27
2018-12-16T22:23:45.640Z,2.13
2018-12-16T22:26:13.262Z,2.37
2018-12-16T22:28:40.887Z,2.20
2018-12-16T22:31:08.338Z,2.90
2018-12-16T22:33:35.941Z,2.13
2018-12-16T22:36:03.485Z,2.90
2018-12-16T22:38:30.944Z,2.93
2018-12-16T22:40:58.602Z,1.77
2018-12-16T22:43:26.168Z,2.37
2018-12-16T22:45:53.622Z,1.97
2018-12-16T22:48:21.076Z,1.60
2018-12-16T22:50:48.741Z,2.00
2018-12-16T22:53:16.189Z,2.27
2018-12-16T22:55:43.735Z,1.63
2018-12-16T22:58:11.217Z,2.00
2018-12-16T23:03:38.260Z,1.30
2018-12-16T23:06:05.910Z,1.70
2018-12-16T23:08:33.568Z,1.53
2018-12-16T23:11:01.225Z,1.80
2018-12-16T23:13:28.701Z,1.47
2018-12-16T23:15:56.334Z,1.47
2018-12-16T23:18:23.901Z,1.40
2018-12-16T23:20:51.350Z,1.23
2018-12-16T23:23:18.798Z,1.30
2018-12-16T23:25:46.237Z,0.87
2018-12-16T23:28:13.921Z,1.30
2018-12-16T23:30:41.474Z,0.90
2018-12-16T23:33:09.122Z,1.03
2018-12-16T23:35:36.786Z,1.00
2018-12-16T23:38:04.490Z,1.30
2018-12-16T23:40:32.106Z,1.50
2018-12-16T23:42:59.766Z,0.77
2018-12-16T23:45:27.423Z,0.70
2018-12-16T23:47:55.082Z,0.90
2018-12-16T23:50:22.742Z,1.03
2018-12-16T23:52:50.398Z,0.97
2018-12-16T23:55:17.870Z,1.20
2018-12-16T23:57:45.510Z,1.10
